createdAt,value
2023-03-26T00:03:18.434Z,100.00
2023-03-26T00:08:20.417Z,100.00
2023-03-26T00:13:22.190Z,100.00
2023-03-26T00:18:29.917Z,100.00
2023-03-26T00:23:34.857Z,100.00
2023-03-26T00:28:37.853Z,100.00
2023-03-26T00:33:41.032Z,100.00
2023-03-26T00:38:43.863Z,100.00
2023-03-26T00:43:46.254Z,100.00
2023-03-26T00:48:48.140Z,100.00
2023-03-26T00:53:50.858Z,100.00
2023-03-26T00:58:53.018Z,100.00
2023-03-26T01:04:07.294Z,100.00
2023-03-26T01:09:21.796Z,100.00
2023-03-26T01:14:26.409Z,100.00
2023-03-26T01:19:37.586Z,100.00
2023-03-26T01:24:40.371Z,100.00
2023-03-26T01:30:12.884Z,100.00
2023-03-26T01:35:33.216Z,100.00
2023-03-26T01:40:42.257Z,100.00
2023-03-26T01:45:47.489Z,100.00
2023-03-26T01:50:53.058Z,100.00
2023-03-26T01:56:19.710Z,100.00
2023-03-26T02:01:44.688Z,100.00
2023-03-26T02:06:58.177Z,100.00
2023-03-26T02:12:00.870Z,100.00
2023-03-26T02:17:02.961Z,100.00
2023-03-26T02:22:04.931Z,100.00
2023-03-26T02:27:11.828Z,100.00
2023-03-26T02:32:14.112Z,100.00
2023-03-26T02:37:18.650Z,100.00
2023-03-26T02:42:20.630Z,100.00
2023-03-26T02:47:22.836Z,100.00
2023-03-26T02:52:24.547Z,100.00
2023-03-26T02:57:26.408Z,100.00
2023-03-26T03:02:28.867Z,100.00
2023-03-26T03:07:31.344Z,100.00
2023-03-26T03:12:33.015Z,100.00
2023-03-26T03:17:34.947Z,100.00
2023-03-26T03:22:37.282Z,100.00
2023-03-26T03:27:39.777Z,100.00
2023-03-26T03:32:41.762Z,100.00
2023-03-26T03:37:43.842Z,100.00
2023-03-26T03:42:46.438Z,100.00
2023-03-26T03:47:48.553Z,100.00
2023-03-26T03:52:50.392Z,100.00
2023-03-26T03:57:52.065Z,100.00
2023-03-26T04:02:54.033Z,100.00
2023-03-26T04:07:55.922Z,100.00
2023-03-26T04:12:57.795Z,100.00
2023-03-26T04:17:59.597Z,100.00
2023-03-26T04:23:01.344Z,100.00
2023-03-26T04:28:06.914Z,100.00
2023-03-26T04:33:14.834Z,100.00
2023-03-26T04:38:18.033Z,100.00
2023-03-26T04:43:19.718Z,100.00
2023-03-26T04:48:22.509Z,100.00
2023-03-26T04:53:24.894Z,100.00
2023-03-26T04:58:32.194Z,100.00
2023-03-26T05:03:34.085Z,100.00
2023-03-26T05:08:36.061Z,100.00
2023-03-26T05:13:38.234Z,100.00
2023-03-26T05:18:40.417Z,100.00
2023-03-26T05:23:42.197Z,100.00
2023-03-26T05:28:43.967Z,100.00
2023-03-26T05:33:46.082Z,100.00
2023-03-26T05:38:49.192Z,100.00
2023-03-26T05:43:51.036Z,100.00
2023-03-26T05:48:53.731Z,100.00
2023-03-26T05:53:55.506Z,100.00
2023-03-26T05:58:57.384Z,100.00
2023-03-26T06:03:59.143Z,100.00
2023-03-26T06:09:02.843Z,100.00
2023-03-26T06:14:06.595Z,100.00
2023-03-26T06:19:08.844Z,100.00
2023-03-26T06:24:11.082Z,100.00
2023-03-26T06:29:14.374Z,100.00
2023-03-26T06:34:16.356Z,100.00
2023-03-26T06:39:19.359Z,100.00
2023-03-26T06:44:21.340Z,99.55
2023-03-26T06:49:23.321Z,98.56
2023-03-26T06:54:25.397Z,98.93
2023-03-26T06:59:27.385Z,99.53
2023-03-26T07:04:29.497Z,100.00
2023-03-26T07:09:32.364Z,100.00
2023-03-26T07:14:34.345Z,99.99
2023-03-26T07:19:36.747Z,99.99
2023-03-26T07:24:39.235Z,100.00
2023-03-26T07:29:53.695Z,100.00
2023-03-26T07:34:58.660Z,100.00
2023-03-26T07:40:13.029Z,100.00
2023-03-26T07:45:42.619Z,100.00
2023-03-26T07:50:45.540Z,100.00
2023-03-26T07:56:00.372Z,99.86
2023-03-26T08:01:22.581Z,99.34
2023-03-26T08:06:35.328Z,96.28
2023-03-26T08:11:40.561Z,93.34
2023-03-26T08:16:51.653Z,92.42
2023-03-26T08:22:02.884Z,91.27
2023-03-26T08:27:37.492Z,88.62
2023-03-26T08:32:40.533Z,84.90
2023-03-26T08:37:45.240Z,82.80
2023-03-26T08:43:19.169Z,82.93
2023-03-26T08:48:59.558Z,84.31
2023-03-26T08:54:23.654Z,85.55
2023-03-26T09:00:08.017Z,86.49
2023-03-26T09:05:44.305Z,87.23
2023-03-26T09:11:05.633Z,84.57
2023-03-26T09:16:53.182Z,80.02
2023-03-26T09:22:37.561Z,80.24
2023-03-26T09:28:29.417Z,82.21
2023-03-26T09:33:53.504Z,84.82
2023-03-26T09:39:08.933Z,86.48
2023-03-26T09:44:23.577Z,88.34
2023-03-26T09:49:25.564Z,90.47
2023-03-26T09:54:36.856Z,90.25
2023-03-26T09:59:58.907Z,84.32
2023-03-26T10:05:20.543Z,74.58
2023-03-26T10:10:42.588Z,65.28
2023-03-26T10:15:57.583Z,64.08
2023-03-26T10:21:30.280Z,66.60
2023-03-26T10:27:08.705Z,68.87
2023-03-26T10:32:43.989Z,68.30
2023-03-26T10:38:03.254Z,66.16
2023-03-26T10:43:19.624Z,66.74
2023-03-26T10:48:54.003Z,68.03
2023-03-26T10:54:00.615Z,69.38
2023-03-26T10:59:07.895Z,71.94
2023-03-26T11:04:31.198Z,73.13
2023-03-26T11:09:52.308Z,71.76
2023-03-26T11:15:13.454Z,75.15
2023-03-26T11:20:38.153Z,77.36
2023-03-26T11:25:49.662Z,75.57
2023-03-26T11:31:00.529Z,73.01
2023-03-26T11:36:17.939Z,72.46
2023-03-26T11:41:23.318Z,72.15
2023-03-26T11:46:27.453Z,70.70
2023-03-26T11:51:33.352Z,69.97
2023-03-26T11:57:05.411Z,69.40
2023-03-26T12:02:09.813Z,69.25
2023-03-26T12:07:24.632Z,69.01
2023-03-26T12:12:37.981Z,68.22
2023-03-26T12:17:41.925Z,68.54
2023-03-26T12:22:47.795Z,69.72
2023-03-26T12:27:52.619Z,72.88
2023-03-26T12:33:03.404Z,75.49
2023-03-26T12:38:35.604Z,79.72
2023-03-26T12:44:51.260Z,85.08
2023-03-26T12:49:11.033Z,88.62
2023-03-26T12:54:23.458Z,87.53
2023-03-26T12:59:40.297Z,86.90
2023-03-26T13:05:13.963Z,86.95
2023-03-26T13:10:26.587Z,85.52
2023-03-26T13:15:39.224Z,85.26
2023-03-26T13:21:21.240Z,85.22
2023-03-26T13:26:54.330Z,85.36
2023-03-26T13:32:05.770Z,85.17
2023-03-26T13:37:28.828Z,84.07
2023-03-26T13:42:55.523Z,84.27
2023-03-26T13:48:02.894Z,85.66
2023-03-26T13:53:07.543Z,86.09
2023-03-26T13:58:22.109Z,86.52
2023-03-26T14:03:46.855Z,86.79
2023-03-26T14:08:57.841Z,86.56
2023-03-26T14:14:12.286Z,87.18
2023-03-26T14:19:43.042Z,88.37
2023-03-26T14:25:25.307Z,87.44
2023-03-26T14:30:57.995Z,86.18
2023-03-26T14:36:08.175Z,85.38
2023-03-26T14:41:25.220Z,83.96
2023-03-26T14:46:36.096Z,82.83
2023-03-26T14:51:50.622Z,82.27
2023-03-26T14:56:53.691Z,82.52
2023-03-26T15:02:24.858Z,83.05
2023-03-26T15:07:32.813Z,84.00
2023-03-26T15:12:48.210Z,83.90
2023-03-26T15:17:50.320Z,83.45
2023-03-26T15:23:20.948Z,83.57
2023-03-26T15:28:58.760Z,83.60
2023-03-26T15:34:38.721Z,84.13
2023-03-26T15:40:10.091Z,83.91
2023-03-26T15:45:35.843Z,84.11
2023-03-26T15:51:18.560Z,84.42
2023-03-26T15:56:32.701Z,85.19
2023-03-26T16:02:02.153Z,86.54
2023-03-26T16:07:29.728Z,87.70
2023-03-26T16:12:54.855Z,88.43
2023-03-26T16:18:06.141Z,88.80
2023-03-26T16:23:47.896Z,89.11
2023-03-26T16:28:52.551Z,89.77
2023-03-26T16:34:21.814Z,90.79
2023-03-26T16:39:39.580Z,92.13
2023-03-26T16:45:22.510Z,93.14
2023-03-26T16:50:46.941Z,94.21
2023-03-26T16:56:48.660Z,95.68
2023-03-26T17:02:05.544Z,97.20
2023-03-26T17:07:16.412Z,98.35
2023-03-26T17:12:34.202Z,99.47
2023-03-26T17:18:04.282Z,99.99
2023-03-26T17:23:16.560Z,100.00
2023-03-26T17:29:02.025Z,100.00
2023-03-26T17:34:32.370Z,100.00
2023-03-26T17:39:42.148Z,100.00
2023-03-26T17:44:49.024Z,100.00
2023-03-26T17:50:10.578Z,100.00
2023-03-26T17:55:32.983Z,100.00
2023-03-26T18:00:44.981Z,100.00
2023-03-26T18:05:50.058Z,100.00
2023-03-26T18:11:14.918Z,100.00
2023-03-26T18:16:27.243Z,100.00
2023-03-26T18:21:39.904Z,100.00
2023-03-26T18:26:55.956Z,100.00
2023-03-26T18:32:13.382Z,100.00
2023-03-26T18:37:19.207Z,100.00
2023-03-26T18:42:26.163Z,100.00
2023-03-26T18:47:32.870Z,100.00
2023-03-26T18:52:37.353Z,100.00
2023-03-26T18:57:39.491Z,100.00
2023-03-26T19:02:42.349Z,100.00
2023-03-26T19:07:47.227Z,100.00
2023-03-26T19:12:57.640Z,100.00
2023-03-26T19:18:14.381Z,100.00
2023-03-26T19:23:21.279Z,100.00
2023-03-26T19:28:29.149Z,100.00
2023-03-26T19:33:37.981Z,100.00
2023-03-26T19:38:51.703Z,100.00
2023-03-26T19:44:00.217Z,100.00
2023-03-26T19:49:04.288Z,100.00
2023-03-26T19:54:16.055Z,100.00
2023-03-26T19:59:17.924Z,100.00
2023-03-26T20:04:20.615Z,100.00
2023-03-26T20:09:25.049Z,100.00
2023-03-26T20:14:27.045Z,100.00
2023-03-26T20:19:30.339Z,100.00
2023-03-26T20:24:32.618Z,100.00
2023-03-26T20:29:37.264Z,100.00
2023-03-26T20:34:39.546Z,100.00
2023-03-26T20:39:41.622Z,100.00
2023-03-26T20:44:43.400Z,100.00
2023-03-26T20:49:45.481Z,100.00
2023-03-26T20:54:47.354Z,100.00
2023-03-26T20:59:49.571Z,100.00
2023-03-26T21:04:53.602Z,100.00
2023-03-26T21:10:00.435Z,99.99
2023-03-26T21:15:16.716Z,99.91
2023-03-26T21:20:25.085Z,99.75
2023-03-26T21:25:49.414Z,99.58
2023-03-26T21:30:52.122Z,99.31
2023-03-26T21:35:57.013Z,99.41
2023-03-26T21:41:03.130Z,99.84
2023-03-26T21:46:05.872Z,100.00
2023-03-26T21:51:10.700Z,100.00
2023-03-26T21:56:31.948Z,100.00
2023-03-26T22:01:47.022Z,100.00
2023-03-26T22:06:58.922Z,100.00
2023-03-26T22:12:01.808Z,100.00
2023-03-26T22:17:04.917Z,100.00
2023-03-26T22:22:06.587Z,100.00
2023-03-26T22:27:08.464Z,100.00
2023-03-26T22:32:10.242Z,100.00
2023-03-26T22:37:13.142Z,100.00
2023-03-26T22:42:15.433Z,100.00
2023-03-26T22:47:17.098Z,100.00
2023-03-26T22:52:18.874Z,100.00
2023-03-26T22:57:21.779Z,100.00
2023-03-26T23:02:23.609Z,100.00
2023-03-26T23:07:25.534Z,100.00
2023-03-26T23:12:27.509Z,100.00
2023-03-26T23:17:29.609Z,100.00
2023-03-26T23:22:32.087Z,100.00
2023-03-26T23:27:34.986Z,100.00
2023-03-26T23:32:37.399Z,100.00
2023-03-26T23:37:41.711Z,100.00
2023-03-26T23:42:43.712Z,100.00
2023-03-26T23:47:46.305Z,100.00
2023-03-26T23:52:48.187Z,100.00
2023-03-26T23:57:49.835Z,100.00
